KBNW

Details ICAO KBNW
Name BOONE MUNI
Region United States
Timezone America/Chicago (UTC-5.0)
Plans Departing 0
Arriving 3
Stats Elevation 1,160 ft / 354 m (AMSL)
Location 42.049775° -93.847894°
Runways 2
Magnetic Variation 0.903° E
Sunrise 2018-05-23 10:49:09 UTC / 2018-05-23 05:49:09 Local
Sunset 2018-05-24 01:38:03 UTC / 2018-05-23 20:38:03 Local
Advertisement - Login to hide

Runways

ID Width Length Bearing (true) Bearing (mag) Surface Threshold Offset Overrun Length
02 290 ft / 88 m 3,300 ft / 1,006 m 25.22° 24.32° Dirt 0 ft / 0 m 0 ft / 0 m
15 75 ft / 23 m 4,809 ft / 1,466 m 149.38° 148.48° Asphalt 140 ft / 43 m 0 ft / 0 m
20 290 ft / 88 m 3,300 ft / 1,006 m 205.22° 204.32° Dirt 0 ft / 0 m 0 ft / 0 m
33 75 ft / 23 m 4,809 ft / 1,466 m 329.38° 328.48° Asphalt 0 ft / 0 m 0 ft / 0 m

Map

Weather


0- 5 10 15 20 25 30 35+ Temperature / ° C

Clouds and Precipitation
Forecast for 2018-05-24 00:00 UTC. Updated 3 hours ago

Ground ~20,000 ft ~40,000 ft Winds

METAR

KBNW 240215Z AUTO 15011KT 10SM CLR 26/17 A3006 RMK AO2

TAF

Not found

Frequencies

Recorded 120.92 MHz AWOS 3
Approach 123.90 MHz DES MOINES APP/DEP
Unicom 123.00 MHz CTAF/UNICOM
Warning: Do not use this data for real-world aviation or navigation. No guarantee of current accuracy is given.